x

East Scotia Slope (44137) Wave Buoy

1:00am - Tue 21st Apr 2015 All times are EDT. -4 hours from GMT.

  • Sig Wave height 4.9ft
  • Peak Period 8s
  • Wind
    20mph, 22mph gusts
  • Sea Temp 46°f
  • Air Temp 46°f
  • Sea Pressure 1027.7mb
  • East Scotia Slope
  • East Scotia Slope

More Historic Weather Station data

Upgrade to MSW Pro to gain access to the past 30 days of data for over 8000 Wavebouys and Weather Stations around the globe.

Join Pro

Comparision Forecast

View Surf forecast
   
Tue 04/21 1:00am 5ft 8s 20 22 mph 1027.7mb 46f 46f
12:00am 4.5ft 8s 18 22 mph 1028.1mb 46f 46f
Mon 04/20 11:00pm 4.5ft 8s 18 22 mph 1028.6mb 46f 45f
10:00pm 4ft 8s 18 20 mph 1029mb 46f 45f
9:00pm 4ft 8s 18 20 mph 1029.4mb 46f 44f
8:00pm 3.5ft 7s 13 18 mph 1029.8mb 46f 44f
7:00pm 3.5ft 7s 13 16 mph 1029.8mb 46f 44f
6:00pm 3.5ft 8s 11 13 mph 1029.8mb 46f 44f
5:00pm 3.5ft 7s 11 13 mph 1029.7mb 46f 44f
4:00pm 3ft 7s 9 11 mph 1029.5mb 46f 44f
3:00pm 3ft 7s 9
mph
1029.8mb 46f 43f
2:00pm 3ft 7s 7 9 mph 1029.6mb 46f 43f
1:00pm 3.5ft 6s 7 9 mph 1029.9mb 46f 42f
12:00pm 3.5ft 6s 7 9 mph 1029.9mb 46f 42f
11:00am 3.5ft 7s 7 9 mph 1029.7mb 46f 41f
10:00am 3.5ft 7s 7
mph
1029.8mb 45f 40f
9:00am 3.5ft 6s 7 9 mph 1029.4mb 45f 39f
8:00am 3.5ft 7s 4 7 mph 1029.1mb 44f 39f
7:00am 4ft 6s 7 9 mph 1028.4mb 44f 38f
6:00am 3.5ft 6s 2 4 mph 1028.1mb 44f 39f
5:00am 3.5ft 6s 2 4 mph 1027.4mb 44f 37f
4:00am 3.5ft 7s  -  2 mph 1027.1mb 44f 37f
3:00am 3.5ft 6s 4 7 mph 1026.4mb 44f 37f
2:00am 3.5ft 7s 7 9 mph 1026.4mb 44f 37f
1:00am 4ft 6s 7 9 mph 1026.6mb 44f 37f
12:00am 4.5ft 7s 7 11 mph 1026.5mb 44f 37f
Sun 04/19 11:00pm 4.5ft 6s 11 13 mph 1026.3mb 44f 37f
10:00pm 5ft 7s 13 18 mph 1025.8mb 44f 37f
9:00pm 5ft 7s 13 16 mph 1025.3mb 44f 37f
8:00pm 5ft 6s 13 18 mph 1024.6mb 44f 36f
7:00pm 5ft 8s 13 18 mph 1023.8mb 44f 36f
6:00pm 5.5ft 6s 16 20 mph 1023mb 44f 37f
5:00pm 6ft 6s 16 20 mph 1022.7mb 44f 37f
4:00pm 6ft 6s 18 22 mph 1022.1mb 44f 37f
3:00pm 6ft 7s 20 25 mph 1021.4mb 44f 37f
2:00pm 6ft 6s 18 25 mph 1021.6mb 44f 37f
1:00pm 6.5ft 6s 18 25 mph 1021.4mb 44f 36f
12:00pm  -   -  22
mph
1020.6mb 44f 36f
11:00am 7ft 6s 22 27 mph 1020mb 44f 37f
10:00am 7.5ft 6s 25 29 mph 1019.7mb 44f 37f
9:00am 7ft 6s 25 31 mph 1018.8mb 44f 37f
8:00am  -   -  25
mph
1017.2mb - 38f
7:00am 5.5ft 5s 27 34 mph 1015.8mb 44f 38f
6:00am 5.5ft 5s 25 31 mph 1015mb 44f 38f
5:00am 5ft 9s 25 29 mph 1013.3mb 43f 38f
4:00am 5.5ft 9s 22 25 mph 1013.8mb 43f 37f
3:00am 6ft 8s 22 29 mph 1014.7mb 43f 38f
2:00am 6ft 8s 18 22 mph 1013.1mb 43f 41f
1:00am 6ft 8s 20 22 mph 1013.2mb 43f 42f
12:00am 6ft 8s 18 22 mph 1014.1mb 43f 42f
Sat 04/18 11:00pm 6ft 9s 18 20 mph 1014.9mb 43f 42f
10:00pm 6ft 8s 18 20 mph 1015.3mb 43f 43f
9:00pm 6ft 9s 16 20 mph 1015.4mb 44f 43f
8:00pm 6ft 10s 16 20 mph 1015.3mb 44f 43f
7:00pm 6ft 10s 18 20 mph 1014.2mb 44f 43f
6:00pm 7ft 10s 18 25 mph 1013.3mb 44f 43f
5:00pm 7ft 10s 18 20 mph 1013.1mb 44f 43f
4:00pm 7.5ft 10s 13 18 mph 1013.1mb 44f 41f
3:00pm 8ft 10s 13 18 mph 1013.1mb 44f 40f
2:00pm 9ft 10s 9 13 mph 1013.4mb 44f 40f
1:00pm 8ft 10s 9 11 mph 1013.5mb 44f 40f
12:00pm 8.5ft 8s 9 13 mph 1013.2mb 44f 40f
11:00am 8ft 9s 9 11 mph 1013.1mb 44f 40f
10:00am 9ft 9s 11 16 mph 1012.8mb 43f 40f
9:00am 9ft 9s 13 18 mph 1012.2mb 43f 41f
8:00am 9ft 8s 11 13 mph 1011.5mb 43f 43f
7:00am 9ft 9s 11 16 mph 1011mb 43f 44f
6:00am 9ft 9s 13 18 mph 1010.1mb 44f 44f
5:00am 9ft 8s 16 20 mph 1010mb 44f 45f
4:00am 9ft 8s 11 13 mph 1010.1mb 44f 45f
3:00am 9ft 8s 13 16 mph 1009.9mb 44f 46f
2:00am 9.5ft 9s 13 16 mph 1009.9mb 44f 46f
1:00am 10ft 8s 11 13 mph 1010.1mb 45f 47f
12:00am 10.5ft 8s 16 20 mph 1010.5mb 44f 50f
Fri 04/17 11:00pm 9ft 8s 20 25 mph 1010.9mb 45f 51f
10:00pm 8.5ft 8s 20 22 mph 1011.1mb 45f 51f
9:00pm 8.5ft 8s 22 27 mph 1012mb 44f 51f
8:00pm 9ft 8s 18 20 mph 1012.5mb 44f 50f
7:00pm 9ft 8s 20 22 mph 1013.4mb 43f 51f
6:00pm 8ft 7s 18 20 mph 1013.8mb 43f 50f
5:00pm 9ft 8s 18 20 mph 1014.6mb 43f 50f
4:00pm 8ft 8s 16 18 mph 1015.4mb 43f 50f
3:00pm 8ft 7s 16 18 mph 1016.5mb 43f 50f
2:00pm 7.5ft 7s 16 18 mph 1017.5mb 44f 50f
1:00pm 7ft 7s 16 20 mph 1018.6mb 44f 50f
12:00pm 6.5ft 6s 18 20 mph 1019.8mb 44f 49f
11:00am 6ft 10s 18 20 mph 1020.2mb 44f 48f
10:00am 6ft 10s 18 20 mph 1020.9mb 44f 48f
9:00am 6ft 10s 16 18 mph 1021.6mb 44f 48f
8:00am 6ft 11s 16 18 mph 1022.4mb 44f 48f
7:00am 5.5ft 11s 16 18 mph 1023mb 44f 47f